createdAt,value
2019-02-15T00:00:34.455Z,66.06
2019-02-15T00:04:04.557Z,66.17
2019-02-15T00:07:34.659Z,66.27
2019-02-15T00:11:04.841Z,66.36
2019-02-15T00:14:44.163Z,66.46
2019-02-15T00:18:36.441Z,66.56
2019-02-15T00:22:06.448Z,66.67
2019-02-15T00:25:36.608Z,66.76
2019-02-15T00:29:06.750Z,66.88
2019-02-15T00:32:36.857Z,66.99
2019-02-15T00:36:06.985Z,67.09
2019-02-15T00:39:37.086Z,67.21
2019-02-15T00:43:07.387Z,67.3
2019-02-15T00:46:45.983Z,67.44
2019-02-15T00:52:50.153Z,67.6
2019-02-15T00:58:50.596Z,67.77
2019-02-15T01:04:50.559Z,67.94
2019-02-15T01:08:26.121Z,68.03
2019-02-15T01:13:19.674Z,68.18
2019-02-15T01:16:49.835Z,68.28
2019-02-15T01:20:19.957Z,68.36
2019-02-15T01:23:50.010Z,68.43
2019-02-15T01:27:30.151Z,68.55
2019-02-15T01:31:27.193Z,68.64
2019-02-15T01:35:09.746Z,68.74
2019-02-15T01:38:48.118Z,68.84
2019-02-15T01:42:25.271Z,68.92
2019-02-15T01:46:01.812Z,69.02
2019-02-15T01:49:31.903Z,69.09
2019-02-15T01:53:02.003Z,69.16
2019-02-15T01:56:32.107Z,69.25
2019-02-15T02:00:17.400Z,69.34
2019-02-15T02:03:47.522Z,69.39
2019-02-15T02:07:17.663Z,69.48
2019-02-15T02:10:47.865Z,69.56
2019-02-15T02:14:17.817Z,69.64
2019-02-15T02:17:47.948Z,69.7
2019-02-15T02:21:18.103Z,69.8
2019-02-15T02:24:48.152Z,69.86
2019-02-15T02:28:18.357Z,69.95
2019-02-15T02:31:48.562Z,70.02
2019-02-15T02:35:18.629Z,70.09
2019-02-15T02:38:48.860Z,70.19
2019-02-15T02:42:18.992Z,70.25
2019-02-15T02:45:49.003Z,70.33
2019-02-15T02:49:20.045Z,70.41
2019-02-15T02:52:50.158Z,70.5
2019-02-15T02:56:20.299Z,70.55
2019-02-15T02:59:50.551Z,70.63
2019-02-15T03:03:20.615Z,70.72
2019-02-15T03:06:50.745Z,70.79
2019-02-15T03:10:20.967Z,70.84
2019-02-15T03:13:51.050Z,70.87
2019-02-15T03:17:21.311Z,71
2019-02-15T03:20:51.423Z,71.06
2019-02-15T03:24:21.515Z,71.09
2019-02-15T03:27:51.587Z,71.16
2019-02-15T03:31:21.770Z,71.22
2019-02-15T03:34:51.912Z,71.31
2019-02-15T03:38:30.032Z,71.37
2019-02-15T03:42:00.268Z,71.43
2019-02-15T03:45:30.367Z,71.52
2019-02-15T03:49:00.531Z,71.57
2019-02-15T03:52:32.309Z,71.66
2019-02-15T03:56:02.542Z,71.7
2019-02-15T03:59:32.677Z,71.8
2019-02-15T04:00:16.537Z,71.81
2019-02-15T04:03:46.799Z,71.88
2019-02-15T04:07:16.977Z,71.93
2019-02-15T04:10:47.109Z,72
2019-02-15T04:14:17.213Z,72.07
2019-02-15T04:17:47.463Z,72.14
2019-02-15T04:21:17.539Z,72.18
2019-02-15T04:24:47.575Z,72.26
2019-02-15T04:28:17.700Z,72.32
2019-02-15T04:31:47.810Z,72.36
2019-02-15T04:35:18.063Z,72.43
2019-02-15T04:38:48.215Z,72.45
2019-02-15T04:42:18.326Z,72.52
2019-02-15T04:45:48.578Z,72.56
2019-02-15T04:49:18.815Z,72.61
2019-02-15T04:52:49.732Z,72.72
2019-02-15T04:56:19.793Z,72.78
2019-02-15T04:59:49.915Z,72.84
2019-02-15T05:03:20.008Z,72.88
2019-02-15T05:06:50.179Z,72.95
2019-02-15T05:10:20.172Z,73
2019-02-15T05:13:50.304Z,73.08
2019-02-15T05:17:20.443Z,73.15
2019-02-15T05:20:50.498Z,73.21
2019-02-15T05:24:20.679Z,73.23
2019-02-15T05:27:50.990Z,73.33
2019-02-15T05:31:21.093Z,73.38
2019-02-15T05:34:51.224Z,73.45
2019-02-15T05:38:21.253Z,73.52
2019-02-15T05:41:51.390Z,73.59
2019-02-15T05:45:21.440Z,73.62
2019-02-15T05:48:51.537Z,73.71
2019-02-15T05:52:21.644Z,73.78
2019-02-15T05:55:52.876Z,73.83
2019-02-15T05:59:22.997Z,73.93
2019-02-15T06:00:17.092Z,73.92
2019-02-15T06:03:47.347Z,74
2019-02-15T06:07:17.506Z,74.06
2019-02-15T06:10:47.705Z,74.08
2019-02-15T06:14:17.866Z,74.17
2019-02-15T06:17:48.141Z,74.21
2019-02-15T06:21:18.229Z,74.27
2019-02-15T06:24:48.432Z,74.32
2019-02-15T06:28:18.553Z,74.4
2019-02-15T06:31:48.727Z,74.43
2019-02-15T06:35:18.867Z,74.49
2019-02-15T06:38:49.116Z,74.55
2019-02-15T06:42:19.142Z,74.61
2019-02-15T06:45:49.173Z,74.64
2019-02-15T06:49:19.366Z,74.67
2019-02-15T06:52:49.507Z,74.7
2019-02-15T06:56:19.728Z,74.74
2019-02-15T06:59:55.855Z,74.76
2019-02-15T07:03:29.992Z,74.83
2019-02-15T07:07:00.104Z,74.88
2019-02-15T07:10:30.166Z,74.9
2019-02-15T07:14:00.198Z,74.95
2019-02-15T07:17:30.331Z,75
2019-02-15T07:21:00.446Z,74.96
2019-02-15T07:24:30.598Z,75.02
2019-02-15T07:28:00.726Z,75.05
2019-02-15T07:31:30.768Z,75.07
2019-02-15T07:35:00.950Z,75.1
2019-02-15T07:38:30.994Z,75.12
2019-02-15T07:42:01.254Z,75.14
2019-02-15T07:45:31.416Z,75.16
2019-02-15T07:49:01.848Z,75.19
2019-02-15T07:52:31.943Z,75.15
2019-02-15T07:56:02.181Z,75.15
2019-02-15T07:59:33.283Z,75.16
2019-02-15T08:00:17.265Z,75.16
2019-02-15T08:03:47.599Z,75.14
2019-02-15T08:07:17.718Z,75.16
2019-02-15T08:10:48.122Z,75.15
2019-02-15T08:14:18.302Z,75.13
2019-02-15T08:17:48.425Z,75.12
2019-02-15T08:21:18.476Z,75.1
2019-02-15T08:24:48.685Z,75.1
2019-02-15T08:28:18.761Z,75.09
2019-02-15T08:31:48.902Z,75.04
2019-02-15T08:35:19.044Z,75.03
2019-02-15T08:38:49.188Z,74.99
2019-02-15T08:42:19.379Z,74.96
2019-02-15T08:45:49.439Z,74.95
2019-02-15T08:49:19.562Z,74.91
2019-02-15T08:52:49.684Z,74.9
2019-02-15T08:56:19.646Z,74.9
2019-02-15T08:59:50.018Z,74.86
2019-02-15T09:03:21.954Z,74.83
2019-02-15T09:06:52.172Z,74.78
2019-02-15T09:10:22.354Z,74.73
2019-02-15T09:13:52.396Z,74.69
2019-02-15T09:17:22.508Z,74.66
2019-02-15T09:20:52.620Z,74.57
2019-02-15T09:24:22.712Z,74.52
2019-02-15T09:28:17.564Z,74.47
2019-02-15T09:31:47.638Z,74.44
2019-02-15T09:35:17.719Z,74.38
2019-02-15T09:38:47.819Z,74.37
2019-02-15T09:42:18.023Z,74.38
2019-02-15T09:45:48.124Z,74.36
2019-02-15T09:49:20.035Z,74.34
2019-02-15T09:52:50.578Z,74.29
2019-02-15T09:56:20.740Z,74.29
2019-02-15T09:59:51.813Z,74.29
2019-02-15T10:00:16.233Z,74.28
2019-02-15T10:03:46.446Z,74.23
2019-02-15T10:07:16.457Z,74.19
2019-02-15T10:10:46.549Z,74.12
2019-02-15T10:14:16.711Z,74.08
2019-02-15T10:17:46.935Z,74.03
2019-02-15T10:21:17.055Z,73.92
2019-02-15T10:24:47.215Z,73.86
2019-02-15T10:28:17.262Z,73.79
2019-02-15T10:31:47.442Z,73.64
2019-02-15T10:35:17.436Z,73.53
2019-02-15T10:38:47.656Z,73.44
2019-02-15T10:42:17.698Z,73.37
2019-02-15T10:45:48.050Z,73.25
2019-02-15T10:49:18.292Z,73.16
2019-02-15T10:52:48.494Z,73.05
2019-02-15T10:56:18.616Z,72.95
2019-02-15T10:59:48.738Z,72.85
2019-02-15T11:03:19.920Z,72.83
2019-02-15T11:06:50.093Z,72.75
2019-02-15T11:10:20.145Z,72.64
2019-02-15T11:13:50.228Z,72.46
2019-02-15T11:17:20.389Z,72.3
2019-02-15T11:20:50.511Z,72.19
2019-02-15T11:24:20.653Z,72.04
2019-02-15T11:27:50.768Z,71.95
2019-02-15T11:31:20.843Z,71.83
2019-02-15T11:34:50.849Z,71.74
2019-02-15T11:38:20.952Z,71.57
2019-02-15T11:41:51.084Z,71.49
2019-02-15T11:45:21.237Z,71.36
2019-02-15T11:48:51.343Z,71.28
2019-02-15T11:52:21.510Z,71.24
2019-02-15T11:55:51.635Z,71.18
2019-02-15T11:59:21.824Z,71.11
2019-02-15T12:00:21.211Z,71.08
2019-02-15T12:03:54.177Z,71.04
2019-02-15T12:07:24.284Z,70.83
2019-02-15T12:10:54.452Z,70.71
2019-02-15T12:14:24.583Z,70.51
2019-02-15T12:17:54.648Z,70.32
2019-02-15T12:21:24.658Z,70.13
2019-02-15T12:24:54.830Z,69.92
2019-02-15T12:28:24.952Z,69.74
2019-02-15T12:31:55.042Z,69.56
2019-02-15T12:35:25.128Z,69.37
2019-02-15T12:38:55.208Z,69.17
2019-02-15T12:42:25.331Z,69.03
2019-02-15T12:45:55.493Z,68.9
2019-02-15T12:49:25.527Z,68.72
2019-02-15T12:52:55.707Z,68.58
2019-02-15T12:56:25.819Z,68.47
2019-02-15T12:59:55.994Z,68.35
2019-02-15T13:03:26.026Z,68.2
2019-02-15T13:06:56.995Z,67.99
2019-02-15T13:10:28.607Z,67.82
2019-02-15T13:13:58.751Z,67.64
2019-02-15T13:17:28.891Z,67.44
2019-02-15T13:20:58.983Z,67.3
2019-02-15T13:24:29.056Z,67.16
2019-02-15T13:27:59.237Z,66.99
2019-02-15T13:31:29.335Z,66.86
2019-02-15T13:35:00.004Z,66.73
2019-02-15T13:38:30.144Z,66.57
2019-02-15T13:42:00.272Z,66.41
2019-02-15T13:45:30.312Z,66.3
2019-02-15T13:49:00.425Z,66.14
2019-02-15T13:52:30.574Z,65.99
2019-02-15T13:56:00.646Z,65.84
2019-02-15T13:59:30.738Z,65.75
2019-02-15T14:00:16.795Z,65.69
2019-02-15T14:03:47.232Z,65.58
2019-02-15T14:07:18.322Z,65.47
2019-02-15T14:10:48.424Z,65.34
2019-02-15T14:14:18.536Z,65.21
2019-02-15T14:17:48.964Z,65.1
2019-02-15T14:21:19.020Z,65
2019-02-15T14:24:49.173Z,64.83
2019-02-15T14:28:19.364Z,64.73
2019-02-15T14:31:49.397Z,64.66
2019-02-15T14:35:19.618Z,64.53
2019-02-15T14:38:49.722Z,64.46
2019-02-15T14:42:19.784Z,64.36
2019-02-15T14:45:50.025Z,64.27
2019-02-15T14:49:20.181Z,64.2
2019-02-15T14:52:50.317Z,64.1
2019-02-15T14:56:20.470Z,64.01
2019-02-15T14:59:50.595Z,63.91
2019-02-15T15:03:20.764Z,63.82
2019-02-15T15:06:50.925Z,63.76
2019-02-15T15:10:22.118Z,63.66
2019-02-15T15:13:52.232Z,63.57
2019-02-15T15:17:22.284Z,63.48
2019-02-15T15:20:52.408Z,63.41
2019-02-15T15:24:22.406Z,63.33
2019-02-15T15:27:52.617Z,63.24
2019-02-15T15:31:22.655Z,63.12
2019-02-15T15:34:52.794Z,63.07
2019-02-15T15:38:23.023Z,62.99
2019-02-15T15:41:53.130Z,62.91
2019-02-15T15:45:23.249Z,62.88
2019-02-15T15:48:53.373Z,62.81
2019-02-15T15:52:23.552Z,62.79
2019-02-15T15:55:53.691Z,62.74
2019-02-15T15:59:23.742Z,62.68
2019-02-15T16:00:16.861Z,62.67
2019-02-15T16:03:47.047Z,62.64
2019-02-15T16:07:17.129Z,62.62
2019-02-15T16:10:48.184Z,62.58
2019-02-15T16:14:18.303Z,62.55
2019-02-15T16:17:48.494Z,62.53
2019-02-15T16:21:18.646Z,62.51
2019-02-15T16:24:48.828Z,62.51
2019-02-15T16:28:18.840Z,62.48
2019-02-15T16:31:48.882Z,62.45
2019-02-15T16:35:18.834Z,62.42
2019-02-15T16:38:48.956Z,62.4
2019-02-15T16:42:19.127Z,62.38
2019-02-15T16:45:49.169Z,62.35
2019-02-15T16:49:19.181Z,62.34
2019-02-15T16:52:49.503Z,62.34
2019-02-15T16:56:19.665Z,62.29
2019-02-15T16:59:49.822Z,62.29
2019-02-15T17:03:19.959Z,62.29
2019-02-15T17:06:50.082Z,62.28
2019-02-15T17:10:20.194Z,62.27
2019-02-15T17:13:51.345Z,62.24
2019-02-15T17:17:21.596Z,62.23
2019-02-15T17:20:51.698Z,62.21
2019-02-15T17:24:21.700Z,62.2
2019-02-15T17:27:51.872Z,62.18
2019-02-15T17:31:21.917Z,62.17
2019-02-15T17:34:52.196Z,62.17
2019-02-15T17:38:22.328Z,62.15
2019-02-15T17:41:52.389Z,62.11
2019-02-15T17:45:22.511Z,62.11
2019-02-15T17:49:00.570Z,62.09
2019-02-15T17:52:31.115Z,62.04
2019-02-15T17:56:01.327Z,62.02
2019-02-15T17:59:31.358Z,61.99
2019-02-15T18:00:18.170Z,61.97
2019-02-15T18:03:48.421Z,61.99
2019-02-15T18:07:18.533Z,61.93
2019-02-15T18:10:48.676Z,61.91
2019-02-15T18:14:19.756Z,61.88
2019-02-15T18:17:49.899Z,61.87
2019-02-15T18:21:20.071Z,61.84
2019-02-15T18:24:50.204Z,61.82
2019-02-15T18:28:20.346Z,61.79
2019-02-15T18:31:50.387Z,61.8
2019-02-15T18:35:20.538Z,61.74
2019-02-15T18:38:50.760Z,61.75
2019-02-15T18:42:20.788Z,61.7
2019-02-15T18:45:50.929Z,61.71
2019-02-15T18:49:21.006Z,61.68
2019-02-15T18:52:51.177Z,61.67
2019-02-15T18:56:21.411Z,61.64
2019-02-15T18:59:51.421Z,61.62
2019-02-15T19:03:21.552Z,61.59
2019-02-15T19:06:51.747Z,61.58
2019-02-15T19:10:21.897Z,61.55
2019-02-15T19:13:52.032Z,61.52
2019-02-15T19:17:22.145Z,61.48
2019-02-15T19:20:52.387Z,61.46
2019-02-15T19:24:22.534Z,61.43
2019-02-15T19:27:52.617Z,61.39
2019-02-15T19:31:22.679Z,61.37
2019-02-15T19:34:52.960Z,61.37
2019-02-15T19:38:22.922Z,61.35
2019-02-15T19:41:52.923Z,61.32
2019-02-15T19:45:23.001Z,61.32
2019-02-15T19:48:53.037Z,61.28
2019-02-15T19:52:23.049Z,61.28
2019-02-15T19:55:53.272Z,61.27
2019-02-15T19:59:23.265Z,61.26
2019-02-15T20:00:16.609Z,61.25
2019-02-15T20:03:46.830Z,61.24
2019-02-15T20:07:16.935Z,61.23
2019-02-15T20:10:47.137Z,61.22
2019-02-15T20:14:17.192Z,61.2
2019-02-15T20:17:48.349Z,61.2
2019-02-15T20:21:18.423Z,61.16
2019-02-15T20:24:48.616Z,61.16
2019-02-15T20:28:18.649Z,61.14
2019-02-15T20:31:48.807Z,61.14
2019-02-15T20:35:18.820Z,61.11
2019-02-15T20:38:48.886Z,61.12
2019-02-15T20:42:19.037Z,61.08
2019-02-15T20:45:49.218Z,61.07
2019-02-15T20:49:19.229Z,61.06
2019-02-15T20:52:49.330Z,61.05
2019-02-15T20:56:19.313Z,61.04
2019-02-15T20:59:49.411Z,61.01
2019-02-15T21:03:19.459Z,61.01
2019-02-15T21:06:49.446Z,60.99
2019-02-15T21:10:19.573Z,60.97
2019-02-15T21:13:49.594Z,60.97
2019-02-15T21:17:19.625Z,60.97
2019-02-15T21:20:50.676Z,60.97
2019-02-15T21:24:20.706Z,60.97
2019-02-15T21:27:50.777Z,60.94
2019-02-15T21:31:20.810Z,60.93
2019-02-15T21:34:50.908Z,60.95
2019-02-15T21:38:21.100Z,60.96
2019-02-15T21:41:51.170Z,60.99
2019-02-15T21:45:21.251Z,60.96
2019-02-15T21:48:51.411Z,60.98
2019-02-15T21:52:21.402Z,61
2019-02-15T21:55:51.463Z,61.01
2019-02-15T21:59:21.564Z,61.02
2019-02-15T22:00:17.254Z,61.04
2019-02-15T22:03:47.425Z,61.06
2019-02-15T22:07:17.472Z,61.1
2019-02-15T22:10:47.607Z,61.12
2019-02-15T22:14:17.628Z,61.12
2019-02-15T22:17:47.688Z,61.17
2019-02-15T22:21:18.699Z,61.2
2019-02-15T22:24:48.823Z,61.25
2019-02-15T22:28:18.922Z,61.28
2019-02-15T22:31:48.973Z,61.33
2019-02-15T22:35:19.083Z,61.38
2019-02-15T22:38:49.133Z,61.44
2019-02-15T22:42:19.214Z,61.5
2019-02-15T22:45:49.254Z,61.56
2019-02-15T22:49:19.225Z,61.59
2019-02-15T22:52:49.346Z,61.63
2019-02-15T22:56:19.547Z,61.68
2019-02-15T22:59:49.657Z,61.72
2019-02-15T23:03:21.812Z,61.74
2019-02-15T23:06:51.929Z,61.78
2019-02-15T23:10:21.910Z,61.85
2019-02-15T23:13:52.011Z,61.89
2019-02-15T23:17:22.091Z,61.94
2019-02-15T23:20:52.053Z,61.98
2019-02-15T23:24:23.087Z,62.04
2019-02-15T23:27:53.144Z,62.1
2019-02-15T23:31:23.113Z,62.13
2019-02-15T23:34:53.166Z,62.2
2019-02-15T23:38:23.199Z,62.25
2019-02-15T23:41:53.230Z,62.29
2019-02-15T23:45:23.199Z,62.34
2019-02-15T23:48:53.301Z,62.37
2019-02-15T23:52:23.281Z,62.43
2019-02-15T23:55:53.425Z,62.45
2019-02-15T23:59:23.512Z,62.52
